Reedville, Vermont
Current Conditions -  °F | °C
As of 4:54 AM on Sunday 28 Dec 2014 (Local Time) from KVSF Reporting Station
Light Rain Light Rain  
Wind Chill: 35°   Ceiling: 10000
Heat Index: 35°   Visibility: 7mi
Dew Point: 34°   Wind: 0mph
Humidity: 96%   Direction: NA
Pressure: 29.82"   Gusts: NA
Location:  43.2811°N, 72.6352°W
Report Text: KVSF 280954Z AUTO 00000KT 7SM -RA OVC100 02/01 A2982 RMK AO2 SLP103 P0001 T00170011 TSNO
Loading
Personal Weather Stations






























Interactive Weather Map New forecast layout! Learn more

10-Day Weather Forecast

Advertisements
Track Severe Weather on mobile